Detalii statie AGROKAISER STANESTI [0000198D]

Toti senzorii

Date Temperatura solului [C]Precipitatii [mm]Voltaj baterie [mV]Leaf Wetness [Min]HC Air temperature [C]HC Relative humidity [%]Punctul de roua [C]
medieminmaxsumaultimatimpmedieminmaxmediemediemin
2019-02-21 01:00:00 0 6708 5.96 5.51 6.21 100 5.9 5.5
2019-02-21 02:00:00 0 6718 5.44 5.16 5.74 100 5.3 5.1
2019-02-21 03:00:00 0 6708 4.52 4.07 5.5 100 4.5 4
2019-02-21 04:00:00 0 6698 3.84 3.5 4.82 100 3.7 3.5
2019-02-21 05:00:00 0 6698 2.96 2.74 3.14 100 2.9 2.7
2019-02-21 06:00:00 0 6698 3.64 3.19 3.91 100 3.6 3.1
2019-02-21 07:00:00 0 6688 3.78 3.7 3.9 100 3.7 3.7
2019-02-21 08:00:00 0 6708 3.89 3.86 3.99 100 3.8 3.8
2019-02-21 09:00:00 0 7108 4.94 4.11 6 100 4.9 4.1
2019-02-21 10:00:00 0 7284 7.3 6.25 7.87 100 7.2 6.2
2019-02-21 11:00:00 0 7274 8.18 7.91 8.53 100 8.1 7.9
2019-02-21 12:00:00 0 7284 8.58 7.89 9.52 100 8.5 7.8
2019-02-21 13:00:00 0 7284 10.01 9.28 10.67 99.86 9.9 9.2
2019-02-21 14:00:00 0 7284 10.58 10.22 11.1 96.71 9.9 9.7
2019-02-21 15:00:00 0 7274 11.48 11.14 11.85 92.97 10.2 10
2019-02-21 16:00:00 0 7196 11.94 11.73 12.34 90.27 10.2 9.8
2019-02-21 17:00:00 0 7166 11.19 10.51 11.75 92.75 9.9 9.6
2019-02-21 18:00:00 0 6922 9.42 8.66 10.32 99.17 9.2 8.6
2019-02-21 19:00:00 0 6796 7.9 7.5 8.56 100 7.8 7.5
2019-02-21 20:00:00 0 6748 8.01 7.75 8.32 92.6 6.7 6.1
2019-02-21 21:00:00 0 6748 7.19 6.51 8.19 91.2 5.7 5.3
2019-02-21 22:00:00 0 6728 6.16 5.42 6.61 92.26 4.9 4.6
2019-02-21 23:00:00 0 6728 4.91 4.59 5.14 96.73 4.3 4
2019-02-22 00:00:00 0 6718 3.64 2.74 4.68 99.58 3.5 2.7
2019-02-22 01:00:00 0 6698 2.76 1.45 3.37 100 2.7 1.4
2019-02-22 02:00:00 0 6698 1.57 1.14 2.19 100 1.5 1.1
2019-02-22 03:00:00 0 6698 0.7 0.47 1.23 100 0.6 0.4
2019-02-22 04:00:00 0 6678 0.99 0.71 1.24 100 0.9 0.7
2019-02-22 05:00:00 0 6688 0.82 0.66 0.95 100 0.7 0.6
2019-02-22 06:00:00 0 6678 0.73 0.63 0.91 100 0.6 0.6
2019-02-22 07:00:00 0 6678 0.27 -0.04 0.55 100 0.2 0
2019-02-22 08:00:00 0 6718 -0.22 -0.31 -0.05 100 0 -0.2
2019-02-22 09:00:00 0 7274 0.84 -0.13 1.99 100 0.8 0
2019-02-22 10:00:00 0 7294 3 2.11 3.9 100 2.9 2.1
2019-02-22 11:00:00 0 7284 4.76 4.28 5.84 100 4.7 4.2
2019-02-22 12:00:00 0 7254 6.68 6.21 6.86 92.46 5.4 4.8
2019-02-22 13:00:00 0 7264 6.68 6.54 7.08 93.69 5.6 5
2019-02-22 14:00:00 0 7264 6.6 5.94 7.16 99.82 6.5 5.9
2019-02-22 15:00:00 0.6 7108 5.35 5.16 5.84 100 5.3 5.1
2019-02-22 16:00:00 0.8 7000 4.71 4.53 5.02 100 4.6 4.5
2019-02-22 17:00:00 1 6844 4.35 4.26 4.41 100 4.3 4.2
2019-02-22 18:00:00 0.8 6738 2.84 -0.03 4.27 100 2.8 0
2019-02-22 19:00:00 0.2 6698 -0.5 -0.74 -0.15 100 -0.3 -0.6